Time;durP1;ratioP1;P1;durP2;ratioP2;P2;SDS_P1;SDS_P2;PMS_P1;PMS_P2;Temp;Humidity;BMP_temperature;BMP_pressure;BME280_temperature;BME280_humidity;BME280_pressure;Samples;Min_cycle;Max_cycle;Signal;HPM_P1;HPM_P2
2023/07/01 00:01:48;;;;;;;9.67;4.83;;;16.60;67.00;;;;;;5073949;28;20447;-62
2023/07/01 00:04:15;;;;;;;9.77;5.10;;;16.60;67.00;;;;;;5073902;28;20485;-62
2023/07/01 00:06:43;;;;;;;12.23;4.93;;;16.60;67.00;;;;;;5236657;22;20478;-77
2023/07/01 00:09:10;;;;;;;12.93;5.30;;;16.60;67.00;;;;;;5074167;28;20439;-78
2023/07/01 00:11:37;;;;;;;8.90;4.70;;;16.60;66.90;;;;;;5074480;28;20499;-78
2023/07/01 00:14:04;;;;;;;9.20;4.40;;;16.60;66.60;;;;;;5078854;28;20472;-78
2023/07/01 00:16:33;;;;;;;8.80;4.33;;;16.60;65.30;;;;;;5059455;28;21102;-78
2023/07/01 00:19:01;;;;;;;15.20;5.17;;;16.60;64.90;;;;;;5093957;28;20481;-78
2023/07/01 00:21:28;;;;;;;19.50;4.40;;;16.60;64.50;;;;;;5093605;28;20446;-78
2023/07/01 00:23:55;;;;;;;9.10;4.70;;;16.70;65.10;;;;;;5093994;28;20534;-78
2023/07/01 00:26:22;;;;;;;9.03;5.53;;;16.70;65.50;;;;;;5093221;28;20456;-78
2023/07/01 00:28:49;;;;;;;8.10;4.77;;;16.70;65.40;;;;;;5093521;28;20878;-78
2023/07/01 00:31:18;;;;;;;10.43;5.00;;;16.60;66.20;;;;;;5075167;28;20477;-78
2023/07/01 00:33:54;;;;;;;14.27;5.20;;;16.70;67.10;;;;;;5092886;28;20476;-78
2023/07/01 00:36:21;;;;;;;11.03;4.90;;;16.70;64.30;;;;;;5094102;28;20453;-78
2023/07/01 00:38:48;;;;;;;13.50;5.33;;;16.70;65.20;;;;;;5093447;28;20477;-78
2023/07/01 00:41:17;;;;;;;8.13;4.50;;;16.70;65.70;;;;;;5093620;28;20438;-78
2023/07/01 00:43:44;;;;;;;8.80;4.67;;;16.70;65.20;;;;;;5093581;28;20515;-78
2023/07/01 00:46:11;;;;;;;10.47;4.70;;;16.70;65.20;;;;;;5076808;28;20453;-78
2023/07/01 00:48:41;;;;;;;11.60;4.33;;;16.70;61.20;;;;;;5093634;28;20450;-78
2023/07/01 00:51:10;;;;;;;10.43;4.63;;;16.80;60.50;;;;;;5093573;28;20477;-78
2023/07/01 00:53:39;;;;;;;8.20;4.00;;;16.80;60.00;;;;;;5093399;28;20993;-78
2023/07/01 00:56:06;;;;;;;9.80;3.90;;;16.80;58.90;;;;;;5093659;28;20485;-78
2023/07/01 00:58:33;;;;;;;8.80;4.70;;;16.90;59.00;;;;;;5093458;28;20511;-78
2023/07/01 01:01:04;;;;;;;11.27;4.30;;;16.90;59.00;;;;;;5076656;28;20451;-77
2023/07/01 01:03:37;;;;;;;9.13;3.90;;;17.00;59.10;;;;;;5092612;28;20476;-78
2023/07/01 01:06:09;;;;;;;7.97;4.20;;;16.90;60.00;;;;;;5092789;28;20544;-78
2023/07/01 01:08:47;;;;;;;14.57;5.00;;;16.90;61.60;;;;;;5079471;28;20457;-78
2023/07/01 01:11:20;;;;;;;7.63;4.00;;;16.90;63.60;;;;;;5085720;28;20821;-78
2023/07/01 01:13:48;;;;;;;11.10;3.90;;;16.90;65.60;;;;;;5093122;28;20548;-77
2023/07/01 01:16:15;;;;;;;8.27;4.80;;;16.70;66.30;;;;;;5092612;28;20446;-78
2023/07/01 01:18:45;;;;;;;10.50;4.90;;;16.70;67.00;;;;;;5092705;28;20446;-78
2023/07/01 01:21:14;;;;;;;10.17;4.13;;;16.70;67.10;;;;;;5092831;28;20817;-78
2023/07/01 01:23:51;;;;;;;8.63;4.50;;;16.70;64.60;;;;;;5091676;28;20466;-78
2023/07/01 01:26:22;;;;;;;13.00;3.90;;;16.70;63.90;;;;;;5092811;28;20529;-78
2023/07/01 01:28:54;;;;;;;8.70;4.20;;;16.70;64.30;;;;;;5092657;28;20454;-78
2023/07/01 01:31:20;;;;;;;8.73;4.60;;;16.60;66.00;;;;;;5092718;28;20485;-78
2023/07/01 01:33:48;;;;;;;6.57;4.10;;;16.60;67.00;;;;;;5092529;28;20890;-78
2023/07/01 01:36:24;;;;;;;7.67;3.90;;;16.60;67.00;;;;;;5092173;28;20454;-78
2023/07/01 01:38:52;;;;;;;8.20;4.57;;;16.60;64.80;;;;;;5072851;28;20448;-78
2023/07/01 01:41:24;;;;;;;9.10;4.30;;;16.60;67.00;;;;;;5092723;28;21002;-78
2023/07/01 01:43:59;;;;;;;7.70;4.30;;;16.70;67.10;;;;;;5092903;28;20539;-78
2023/07/01 01:46:27;;;;;;;10.43;3.80;;;16.60;67.00;;;;;;5091140;28;20788;-78
2023/07/01 01:48:57;;;;;;;7.47;4.30;;;16.60;67.00;;;;;;5092280;28;20814;-78
2023/07/01 01:51:25;;;;;;;8.20;5.00;;;16.60;67.00;;;;;;5082206;28;20541;-78
2023/07/01 01:53:55;;;;;;;6.83;4.23;;;16.50;66.90;;;;;;5091674;28;20583;-78
2023/07/01 01:56:23;;;;;;;7.20;4.23;;;16.50;66.90;;;;;;5092125;28;20454;-78
2023/07/01 01:58:51;;;;;;;8.50;4.60;;;16.50;66.90;;;;;;5092163;28;20452;-78
2023/07/01 02:01:19;;;;;;;6.30;3.87;;;16.50;66.90;;;;;;5092020;28;20448;-77
2023/07/01 02:03:45;;;;;;;6.73;3.80;;;16.50;66.90;;;;;;5092578;28;20474;-77
2023/07/01 02:06:13;;;;;;;8.67;3.73;;;16.50;66.90;;;;;;5091735;28;20457;-78
2023/07/01 02:08:40;;;;;;;6.50;3.93;;;16.50;66.90;;;;;;5092078;28;20445;-78
2023/07/01 02:11:07;;;;;;;11.30;4.33;;;16.50;66.90;;;;;;5091641;28;21006;-77
2023/07/01 02:13:34;;;;;;;10.87;5.37;;;16.60;67.00;;;;;;5091961;28;20480;-78
2023/07/01 02:16:04;;;;;;;8.90;4.70;;;16.60;67.00;;;;;;5091669;28;20480;-78
2023/07/01 02:18:32;;;;;;;8.67;4.30;;;16.60;66.10;;;;;;5092038;28;20450;-78
2023/07/01 02:21:04;;;;;;;7.60;4.13;;;16.60;65.50;;;;;;5091214;28;20449;-78
2023/07/01 02:23:32;;;;;;;9.80;4.17;;;16.60;65.10;;;;;;5074587;28;20466;-77
2023/07/01 02:26:00;;;;;;;9.40;3.63;;;16.70;62.40;;;;;;5091397;28;20944;-77
2023/07/01 02:28:27;;;;;;;10.17;4.53;;;16.70;63.00;;;;;;5091924;28;20450;-77
2023/07/01 02:30:54;;;;;;;8.63;4.17;;;16.70;61.00;;;;;;5091505;28;20564;-77
2023/07/01 02:33:25;;;;;;;8.90;5.03;;;16.80;58.90;;;;;;5091410;28;20836;-78
2023/07/01 02:35:52;;;;;;;9.63;3.80;;;16.80;60.90;;;;;;5091412;28;20452;-78
2023/07/01 02:38:20;;;;;;;9.00;3.50;;;16.80;58.90;;;;;;5090937;28;20820;-78
2023/07/01 02:40:47;;;;;;;7.20;3.30;;;16.80;58.90;;;;;;5090933;28;20525;-78
2023/07/01 02:43:14;;;;;;;10.03;3.40;;;16.80;57.70;;;;;;5091258;28;20543;-78
2023/07/01 02:45:41;;;;;;;10.40;4.13;;;16.90;56.60;;;;;;5090774;28;20975;-78
2023/07/01 02:48:08;;;;;;;8.60;3.70;;;16.90;58.90;;;;;;5091779;28;20529;-77
2023/07/01 02:50:36;;;;;;;8.13;3.37;;;16.90;56.90;;;;;;5093960;28;20469;-77
2023/07/01 02:53:05;;;;;;;6.73;2.87;;;16.90;56.40;;;;;;5095548;28;20807;-78
2023/07/01 02:55:32;;;;;;;6.13;3.00;;;16.90;55.70;;;;;;5057145;28;20812;-78
2023/07/01 02:57:59;;;;;;;8.27;5.00;;;16.90;54.70;;;;;;5066344;28;20453;-78
2023/07/01 03:00:26;;;;;;;8.07;3.03;;;17.00;53.20;;;;;;5095706;28;20806;-77
2023/07/01 03:02:53;;;;;;;5.17;2.57;;;17.00;53.50;;;;;;5095272;28;20503;-78
2023/07/01 03:05:23;;;;;;;5.23;2.50;;;17.00;52.10;;;;;;5095049;28;20529;-78
2023/07/01 03:07:52;;;;;;;7.00;3.33;;;17.00;54.50;;;;;;5095132;28;20478;-78
2023/07/01 03:10:19;;;;;;;7.33;3.50;;;17.00;54.90;;;;;;5095117;28;20477;-78
2023/07/01 03:12:46;;;;;;;6.53;2.97;;;17.00;54.80;;;;;;5095111;28;20464;-77
2023/07/01 03:15:14;;;;;;;6.27;2.70;;;17.10;55.50;;;;;;5095105;28;20453;-77
2023/07/01 03:17:41;;;;;;;6.37;2.63;;;16.90;56.10;;;;;;5095360;28;20449;-78
2023/07/01 03:20:20;;;;;;;6.50;2.40;;;17.00;50.70;;;;;;5094940;28;20477;-77
2023/07/01 03:22:47;;;;;;;5.27;2.33;;;17.00;50.40;;;;;;5094049;28;20460;-78
2023/07/01 03:25:15;;;;;;;7.50;2.50;;;17.10;50.60;;;;;;5094579;28;20526;-77
2023/07/01 03:27:42;;;;;;;6.00;2.70;;;17.10;50.50;;;;;;5095086;28;20824;-77
2023/07/01 03:30:15;;;;;;;8.87;3.03;;;17.10;52.30;;;;;;5095438;28;20458;-78
2023/07/01 03:32:42;;;;;;;6.67;2.67;;;17.00;52.50;;;;;;5095084;28;20547;-78
2023/07/01 03:35:10;;;;;;;7.97;3.00;;;17.00;50.70;;;;;;5093593;28;20470;-78
2023/07/01 03:37:37;;;;;;;8.80;3.47;;;17.00;53.20;;;;;;5095019;28;20481;-78
2023/07/01 03:40:05;;;;;;;6.30;2.37;;;17.00;51.20;;;;;;5094343;28;20450;-78
2023/07/01 03:42:33;;;;;;;6.00;2.60;;;17.00;53.20;;;;;;5076460;28;20454;-78
2023/07/01 03:45:00;;;;;;;7.47;3.07;;;16.90;55.00;;;;;;5093906;28;21056;-78
2023/07/01 03:47:27;;;;;;;7.13;3.33;;;17.00;53.20;;;;;;5094908;28;20511;-78
2023/07/01 03:49:54;;;;;;;10.80;3.00;;;17.00;53.40;;;;;;5094192;28;20838;-78
2023/07/01 03:52:21;;;;;;;9.30;3.00;;;17.10;51.50;;;;;;5094000;28;20466;-78
2023/07/01 03:54:50;;;;;;;8.50;2.77;;;17.00;53.50;;;;;;5094001;28;20556;-78
2023/07/01 03:57:17;;;;;;;5.50;2.60;;;17.00;53.30;;;;;;5094699;28;20454;-78
2023/07/01 03:59:49;;;;;;;5.80;2.87;;;17.00;52.10;;;;;;5094178;28;20511;-78
2023/07/01 04:02:16;;;;;;;6.87;3.30;;;17.00;53.00;;;;;;5094521;28;20525;-78
2023/07/01 04:04:43;;;;;;;6.30;3.40;;;17.00;53.10;;;;;;5093596;28;20499;-78
2023/07/01 04:07:10;;;;;;;7.33;3.60;;;17.00;54.90;;;;;;5094425;28;20468;-78
2023/07/01 04:09:37;;;;;;;6.63;2.70;;;17.00;55.90;;;;;;5093822;28;20446;-76
2023/07/01 04:12:05;;;;;;;7.13;3.43;;;17.00;57.10;;;;;;5093912;28;20477;-74
2023/07/01 04:14:32;;;;;;;7.80;2.90;;;17.00;54.30;;;;;;5093152;28;20470;-75
2023/07/01 04:17:02;;;;;;;7.80;2.67;;;17.10;50.60;;;;;;5076293;28;20453;-76
2023/07/01 04:19:30;;;;;;;6.90;3.33;;;17.10;50.50;;;;;;5092355;28;20446;-76
2023/07/01 04:21:57;;;;;;;9.60;3.13;;;17.20;50.60;;;;;;5083431;28;20478;-76
2023/07/01 04:24:24;;;;;;;6.17;2.60;;;17.40;50.80;;;;;;5093769;28;20826;-76
2023/07/01 04:26:52;;;;;;;7.13;2.93;;;17.30;50.70;;;;;;5094182;28;20454;-76
2023/07/01 04:29:19;;;;;;;6.60;2.80;;;17.30;50.70;;;;;;5093201;28;20965;-75
2023/07/01 04:31:46;;;;;;;5.27;2.53;;;17.30;50.70;;;;;;5093843;28;21066;-75
2023/07/01 04:34:15;;;;;;;6.43;2.73;;;17.40;50.80;;;;;;5093933;28;20564;-75
2023/07/01 04:36:42;;;;;;;11.83;2.83;;;17.50;50.90;;;;;;5093284;28;20473;-76
2023/07/01 04:39:11;;;;;;;5.93;2.70;;;17.60;51.00;;;;;;5093651;28;20446;-76
2023/07/01 04:41:38;;;;;;;5.70;2.50;;;17.60;51.00;;;;;;5093881;28;20495;-74
2023/07/01 04:44:06;;;;;;;7.10;2.77;;;17.70;49.80;;;;;;5093000;28;20561;-74
2023/07/01 04:46:33;;;;;;;7.80;3.00;;;17.80;49.40;;;;;;5093677;28;20446;-74
2023/07/01 04:49:03;;;;;;;8.77;2.97;;;17.90;48.00;;;;;;5093911;28;20453;-74
2023/07/01 04:51:31;;;;;;;9.00;2.77;;;18.00;47.60;;;;;;5093493;28;20988;-73
2023/07/01 04:54:00;;;;;;;8.30;2.90;;;18.10;47.20;;;;;;5092955;28;20552;-74
2023/07/01 04:56:27;;;;;;;6.47;2.70;;;18.10;48.50;;;;;;5093546;28;20881;-74
2023/07/01 04:58:59;;;;;;;6.80;3.00;;;18.20;46.50;;;;;;5093121;28;20456;-74
2023/07/01 05:01:26;;;;;;;7.20;2.80;;;18.10;47.60;;;;;;5093407;28;20457;-74
2023/07/01 05:03:53;;;;;;;7.97;3.50;;;18.20;47.80;;;;;;5093642;28;20476;-74
2023/07/01 05:06:20;;;;;;;8.33;3.43;;;18.10;47.40;;;;;;5093375;28;21006;-74
2023/07/01 05:08:49;;;;;;;19.47;4.67;;;18.20;48.40;;;;;;5093308;28;20454;-75
2023/07/01 05:11:16;;;;;;;9.57;4.10;;;18.20;47.00;;;;;;5093180;28;20474;-74
2023/07/01 05:13:44;;;;;;;8.40;3.03;;;18.20;46.80;;;;;;5092516;28;20527;-74
2023/07/01 05:16:11;;;;;;;9.30;3.80;;;18.20;47.10;;;;;;5093248;28;20454;-74
2023/07/01 05:18:38;;;;;;;8.97;3.87;;;18.20;48.50;;;;;;5092747;28;20453;-75
2023/07/01 05:21:05;;;;;;;9.00;3.90;;;18.20;46.00;;;;;;5092724;28;20495;-75
2023/07/01 05:23:33;;;;;;;8.23;3.50;;;18.20;46.40;;;;;;5093115;28;20984;-75
2023/07/01 05:26:05;;;;;;;8.50;4.00;;;18.30;46.50;;;;;;5092877;28;20446;-91
2023/07/01 05:28:32;;;;;;;8.37;2.93;;;18.40;46.10;;;;;;5074980;28;20450;-75
2023/07/01 05:30:59;;;;;;;8.47;3.30;;;18.40;45.10;;;;;;5092275;28;20484;-75
2023/07/01 05:33:26;;;;;;;11.10;3.70;;;18.50;45.50;;;;;;5092545;28;20465;-76
2023/07/01 05:35:52;;;;;;;7.00;3.20;;;18.80;45.30;;;;;;5090432;28;20532;-75
2023/07/01 05:38:19;;;;;;;6.00;2.83;;;19.00;45.40;;;;;;5092366;28;20565;-74
2023/07/01 05:40:46;;;;;;;7.43;2.90;;;19.30;45.90;;;;;;5089661;28;21363;-76
2023/07/01 05:43:15;;;;;;;6.23;2.60;;;19.30;43.70;;;;;;5091044;28;20469;-75
2023/07/01 05:45:42;;;;;;;6.27;3.00;;;19.30;43.70;;;;;;5083466;28;20450;-76
2023/07/01 05:48:08;;;;;;;7.60;2.70;;;19.20;44.20;;;;;;5091107;28;20450;-74
2023/07/01 05:50:36;;;;;;;5.70;2.70;;;19.10;43.60;;;;;;5090986;28;20453;-75
2023/07/01 05:53:02;;;;;;;10.83;3.20;;;19.00;46.70;;;;;;5088316;28;20469;-75
2023/07/01 05:55:31;;;;;;;8.43;3.03;;;19.00;46.40;;;;;;5091481;28;20464;-78
2023/07/01 05:57:58;;;;;;;6.13;2.63;;;18.90;43.30;;;;;;5072296;28;20454;-78
2023/07/01 06:00:26;;;;;;;8.00;2.80;;;18.90;44.70;;;;;;5088647;28;20450;-77
2023/07/01 06:02:53;;;;;;;10.73;3.40;;;18.90;47.70;;;;;;5087651;28;20454;-77
2023/07/01 06:05:20;;;;;;;8.80;2.97;;;18.80;52.10;;;;;;5089526;28;20546;-77
2023/07/01 06:07:49;;;;;;;6.20;2.73;;;18.60;47.50;;;;;;5085357;28;20445;-77
2023/07/01 06:10:16;;;;;;;5.80;2.37;;;18.30;49.90;;;;;;5085768;28;20461;-76
2023/07/01 06:12:43;;;;;;;7.80;2.97;;;18.00;52.20;;;;;;5091520;28;20478;-76
2023/07/01 06:15:12;;;;;;;5.40;2.63;;;17.80;54.40;;;;;;5091738;28;20470;-76
2023/07/01 06:17:41;;;;;;;8.57;4.00;;;17.60;56.30;;;;;;5091444;28;20450;-77
2023/07/01 06:20:09;;;;;;;6.53;2.83;;;17.60;59.10;;;;;;5092082;28;20449;-77
2023/07/01 06:22:41;;;;;;;6.00;2.60;;;17.60;59.60;;;;;;5092103;28;20977;-76
2023/07/01 06:25:10;;;;;;;6.77;3.07;;;17.50;67.80;;;;;;5090489;28;20474;-77
2023/07/01 06:27:37;;;;;;;6.60;3.50;;;17.40;67.80;;;;;;5086204;28;20453;-77
2023/07/01 06:30:05;;;;;;;7.37;4.00;;;17.30;67.60;;;;;;5091917;28;20453;-76
2023/07/01 06:32:32;;;;;;;7.27;5.13;;;17.30;67.60;;;;;;5091099;28;20494;-76
2023/07/01 06:35:00;;;;;;;8.00;6.10;;;17.30;67.70;;;;;;5091361;28;20469;-76
2023/07/01 06:37:28;;;;;;;10.37;9.37;;;17.50;71.80;;;;;;5092223;28;20493;-77
2023/07/01 06:39:55;;;;;;;16.87;15.50;;;17.30;72.40;;;;;;5092243;28;20460;-77
2023/07/01 06:42:23;;;;;;;19.03;17.63;;;17.40;75.70;;;;;;5091389;28;20454;-77
2023/07/01 06:44:50;;;;;;;23.27;21.57;;;17.40;75.80;;;;;;5091831;28;20854;-77
2023/07/01 06:47:17;;;;;;;70.53;67.20;;;17.40;76.60;;;;;;5092336;28;20453;-77
2023/07/01 06:49:44;;;;;;;214.57;207.90;;;17.40;76.80;;;;;;5092314;28;20892;-77
2023/07/01 06:52:13;;;;;;;411.20;397.43;;;17.40;78.30;;;;;;5090037;28;20526;-77
2023/07/01 06:54:40;;;;;;;576.33;554.00;;;17.30;80.40;;;;;;5091234;28;20493;-77
2023/07/01 06:57:07;;;;;;;466.27;450.07;;;17.50;83.80;;;;;;5091508;28;20537;-76
2023/07/01 06:59:34;;;;;;;442.40;427.30;;;17.40;81.90;;;;;;5091291;28;20536;-78
2023/07/01 07:02:00;;;;;;;484.00;466.80;;;17.40;82.00;;;;;;5091221;28;20450;-77
2023/07/01 07:04:30;;;;;;;429.50;415.50;;;17.50;83.70;;;;;;5090747;28;20481;-77
2023/07/01 07:06:57;;;;;;;496.80;479.20;;;17.50;80.70;;;;;;5090121;28;20469;-77
2023/07/01 07:09:25;;;;;;;507.87;489.80;;;17.60;83.90;;;;;;5090788;28;21136;-77
2023/07/01 07:11:54;;;;;;;456.67;441.17;;;17.60;83.90;;;;;;5090189;28;20480;-76
2023/07/01 07:14:22;;;;;;;332.20;322.00;;;17.60;83.90;;;;;;5089612;28;20470;-77
2023/07/01 07:16:49;;;;;;;410.93;397.87;;;17.50;83.70;;;;;;5090003;28;20457;-77
2023/07/01 07:19:15;;;;;;;423.37;409.30;;;17.50;81.50;;;;;;5090767;28;20454;-77
2023/07/01 07:21:42;;;;;;;445.97;431.17;;;17.60;83.90;;;;;;5090630;28;20941;-76
2023/07/01 07:24:09;;;;;;;400.43;387.33;;;17.50;84.10;;;;;;5091407;28;20470;-77
2023/07/01 07:26:38;;;;;;;410.23;396.73;;;17.50;83.80;;;;;;5091061;28;20870;-77
2023/07/01 07:29:05;;;;;;;453.50;438.13;;;17.50;83.80;;;;;;5091009;28;20453;-77
2023/07/01 07:31:32;;;;;;;463.70;447.80;;;17.50;86.50;;;;;;5090975;28;20453;-77
2023/07/01 07:34:01;;;;;;;362.23;350.43;;;17.60;85.50;;;;;;5091208;28;20476;-77
2023/07/01 07:36:27;;;;;;;378.73;366.40;;;17.50;86.30;;;;;;5093420;28;20578;-77
2023/07/01 07:38:55;;;;;;;320.43;310.83;;;17.40;87.10;;;;;;5095264;28;20477;-78
2023/07/01 07:41:21;;;;;;;233.97;226.93;;;17.50;85.70;;;;;;5094857;28;20480;-76
2023/07/01 07:43:50;;;;;;;210.37;203.73;;;17.50;84.70;;;;;;5094776;28;20469;-78
2023/07/01 07:46:16;;;;;;;227.07;220.00;;;17.60;85.50;;;;;;5076424;28;20499;-79
2023/07/01 07:48:43;;;;;;;256.93;248.97;;;17.70;84.00;;;;;;5094804;28;20449;-79
2023/07/01 07:51:10;;;;;;;247.47;239.97;;;17.90;85.80;;;;;;5094833;28;20460;-83
2023/07/01 07:53:38;;;;;;;259.83;252.00;;;18.00;85.30;;;;;;5076318;28;20485;-78
2023/07/01 07:56:05;;;;;;;265.03;256.90;;;18.10;84.30;;;;;;5076600;28;20953;-78
2023/07/01 07:58:32;;;;;;;184.33;178.53;;;18.20;85.70;;;;;;5076385;28;20462;-78
2023/07/01 08:01:00;;;;;;;127.30;123.07;;;18.20;84.50;;;;;;5094679;28;20458;-78
2023/07/01 08:03:27;;;;;;;61.27;58.73;;;18.20;84.40;;;;;;5059163;28;20904;-80
2023/07/01 08:05:54;;;;;;;131.93;127.33;;;18.10;84.30;;;;;;5094445;28;20457;-80
2023/07/01 08:08:21;;;;;;;105.10;101.33;;;18.20;84.50;;;;;;5092629;28;20458;-78
2023/07/01 08:10:48;;;;;;;171.30;165.83;;;18.20;84.50;;;;;;5093876;28;20454;-79
2023/07/01 08:13:18;;;;;;;88.87;85.67;;;18.40;84.90;;;;;;5076737;28;20477;-78
2023/07/01 08:15:45;;;;;;;178.13;172.53;;;18.50;84.60;;;;;;5093856;28;20458;-79
2023/07/01 08:18:13;;;;;;;80.60;77.70;;;18.70;84.90;;;;;;5094250;28;20453;-78
2023/07/01 08:20:40;;;;;;;32.60;31.03;;;18.80;81.00;;;;;;5094332;28;20454;-79
2023/07/01 08:23:13;;;;;;;72.67;69.67;;;18.90;80.50;;;;;;5094595;28;20452;-78
2023/07/01 08:25:40;;;;;;;29.97;28.30;;;19.10;80.00;;;;;;5093979;28;20503;-79
2023/07/01 08:28:07;;;;;;;18.87;17.80;;;19.30;78.70;;;;;;5094267;28;20477;-78
2023/07/01 08:30:34;;;;;;;27.63;26.40;;;19.30;78.40;;;;;;5094035;28;20449;-78
2023/07/01 08:33:01;;;;;;;19.87;18.77;;;19.30;79.10;;;;;;5093973;28;20473;-79
2023/07/01 08:35:30;;;;;;;24.83;23.63;;;19.30;79.30;;;;;;5075798;28;20457;-79
2023/07/01 08:38:02;;;;;;;35.33;33.33;;;19.20;79.20;;;;;;5094124;28;20450;-78
2023/07/01 08:40:29;;;;;;;14.23;13.43;;;19.30;81.20;;;;;;5093673;28;20811;-78
2023/07/01 08:43:01;;;;;;;18.33;17.30;;;19.20;77.50;;;;;;5093930;28;20457;-79
2023/07/01 08:45:31;;;;;;;12.97;11.97;;;19.20;79.80;;;;;;5093544;28;20544;-78
2023/07/01 08:47:59;;;;;;;8.17;7.47;;;19.20;77.50;;;;;;5093703;28;20454;-79
2023/07/01 08:50:34;;;;;;;19.13;17.83;;;19.10;79.00;;;;;;5093754;28;20797;-79
2023/07/01 08:53:06;;;;;;;31.60;30.03;;;19.00;81.00;;;;;;5093515;28;20483;-79
2023/07/01 08:55:34;;;;;;;92.33;89.10;;;18.90;80.60;;;;;;5093322;28;20950;-79
2023/07/01 08:58:03;;;;;;;159.10;153.90;;;18.90;85.10;;;;;;5094032;28;20457;-78
2023/07/01 09:00:31;;;;;;;269.33;260.67;;;18.70;86.60;;;;;;5093136;28;20583;-79
2023/07/01 09:02:59;;;;;;;358.80;347.00;;;18.50;89.20;;;;;;5075574;28;20453;-77
2023/07/01 09:05:26;;;;;;;408.23;394.13;;;18.20;90.60;;;;;;5093102;28;20449;-78
2023/07/01 09:07:54;;;;;;;475.57;457.83;;;18.10;91.70;;;;;;5093484;28;20464;-78
2023/07/01 09:10:24;;;;;;;630.10;604.53;;;18.00;93.00;;;;;;5093013;28;20461;-78
2023/07/01 09:12:52;;;;;;;797.07;758.97;;;17.80;94.20;;;;;;5074778;28;20552;-77
2023/07/01 09:15:19;;;;;;;826.40;787.57;;;18.00;96.30;;;;;;5093049;28;20449;-77
2023/07/01 09:17:45;;;;;;;855.23;812.17;;;17.80;97.00;;;;;;5093381;28;20458;-77
2023/07/01 09:20:13;;;;;;;878.20;830.83;;;17.80;97.50;;;;;;5092898;28;20830;-78
2023/07/01 09:22:46;;;;;;;865.83;819.37;;;17.70;98.00;;;;;;5092941;28;20479;-78
2023/07/01 09:25:27;;;;;;;845.27;803.40;;;17.70;99.80;;;;;;5092627;28;20716;-78
2023/07/01 09:27:54;;;;;;;879.70;832.47;;;17.60;98.90;;;;;;5092745;28;20507;-77
2023/07/01 09:30:25;;;;;;;912.27;860.00;;;17.70;99.90;;;;;;5092641;28;20449;-78
2023/07/01 09:32:53;;;;;;;877.67;830.23;;;17.80;99.90;;;;;;5092377;28;21013;-78
2023/07/01 09:35:19;;;;;;;912.13;858.93;;;17.80;99.90;;;;;;5092499;28;20456;-78
2023/07/01 09:37:46;;;;;;;914.10;860.87;;;17.90;99.90;;;;;;5092367;28;20489;-77
2023/07/01 09:40:20;;;;;;;925.67;872.77;;;18.10;99.90;;;;;;5093159;28;20820;-76
2023/07/01 09:43:04;;;;;;;979.90;924.77;;;18.20;98.90;;;;;;5092737;28;20866;-80
2023/07/01 09:45:30;;;;;;;954.50;894.57;;;18.20;99.70;;;;;;5089476;28;20858;-82
2023/07/01 09:48:01;;;;;;;957.77;904.40;;;18.20;99.30;;;;;;5092673;28;20824;-79
2023/07/01 09:50:29;;;;;;;971.07;912.47;;;18.20;98.70;;;;;;5092593;28;20694;-79
2023/07/01 09:52:58;;;;;;;946.10;888.73;;;18.30;99.90;;;;;;5091983;28;20564;-85
2023/07/01 09:55:25;;;;;;;943.53;884.78;;;18.40;98.90;;;;;;5091010;28;20475;-83
2023/07/01 09:57:54;;;;;;;939.03;881.13;;;18.60;99.10;;;;;;5091721;28;20253;-86
2023/07/01 10:00:25;;;;;;;922.10;867.80;;;18.80;98.00;;;;;;5092205;28;20458;-85
2023/07/01 10:02:52;;;;;;;907.40;855.87;;;19.00;97.80;;;;;;5074487;28;20454;-84
2023/07/01 10:05:20;;;;;;;814.07;778.73;;;19.10;97.20;;;;;;5073671;28;20867;-85
2023/07/01 10:07:47;;;;;;;887.23;840.07;;;19.00;95.20;;;;;;5092586;28;20449;-84
2023/07/01 10:10:16;;;;;;;847.47;807.27;;;19.20;96.60;;;;;;5074241;28;20465;-83
2023/07/01 10:12:44;;;;;;;871.20;826.80;;;19.20;95.90;;;;;;5092302;28;20472;-83
2023/07/01 10:15:12;;;;;;;793.60;761.10;;;19.20;96.00;;;;;;5091354;28;20448;-83
2023/07/01 10:17:48;;;;;;;717.20;692.87;;;19.20;94.80;;;;;;5092253;28;20303;-83
2023/07/01 10:20:32;;;;;;;820.30;786.20;;;19.10;94.70;;;;;;5092349;28;20457;-82
2023/07/01 10:23:01;;;;;;;763.37;735.60;;;19.10;96.60;;;;;;5092244;28;20828;-84
2023/07/01 10:25:33;;;;;;;730.33;705.37;;;19.10;95.60;;;;;;5074092;28;20973;-84
2023/07/01 10:28:07;;;;;;;725.63;700.47;;;19.00;94.70;;;;;;5091893;28;20460;-84
2023/07/01 10:31:12;;;;;;;822.40;785.20;;;19.10;96.80;;;;;;5091868;28;20540;-84
2023/07/01 10:33:51;;;;;;;800.23;766.30;;;19.40;96.00;;;;;;5090011;28;20477;-85
2023/07/01 10:36:18;;;;;;;759.30;729.60;;;19.50;95.40;;;;;;5090940;28;20450;-83
2023/07/01 10:38:46;;;;;;;654.67;634.27;;;19.40;94.90;;;;;;5091303;28;20453;-83
2023/07/01 10:41:13;;;;;;;689.30;666.90;;;19.20;94.80;;;;;;5073655;28;20533;-83
2023/07/01 10:43:40;;;;;;;766.00;737.80;;;19.10;94.70;;;;;;5091066;28;20477;-83
2023/07/01 10:46:12;;;;;;;768.33;739.23;;;19.10;94.70;;;;;;5072929;28;20465;-83
2023/07/01 10:48:41;;;;;;;811.27;777.47;;;19.10;94.70;;;;;;5073277;28;20452;-83
2023/07/01 10:51:11;;;;;;;687.97;664.83;;;19.20;94.80;;;;;;5089849;28;20998;-84
2023/07/01 10:53:59;;;;;;;640.83;620.30;;;19.10;94.70;;;;;;5087478;28;20566;-77
2023/07/01 10:56:28;;;;;;;394.60;383.30;;;19.00;95.10;;;;;;5087995;28;20446;-77
2023/07/01 10:59:20;;;;;;;382.87;371.67;;;18.90;94.60;;;;;;5088141;28;20452;-77
2023/07/01 11:01:48;;;;;;;322.37;312.97;;;18.90;94.60;;;;;;5088458;28;20446;-78
2023/07/01 11:04:16;;;;;;;332.80;322.67;;;18.90;94.70;;;;;;5088241;28;20470;-77
2023/07/01 11:06:50;;;;;;;414.63;401.47;;;18.90;94.60;;;;;;5089501;28;20461;-76
2023/07/01 11:09:27;;;;;;;515.57;497.67;;;19.00;94.70;;;;;;5091066;28;20945;-78
2023/07/01 11:11:54;;;;;;;529.30;510.80;;;19.10;94.70;;;;;;5094864;28;20504;-78
2023/07/01 11:14:30;;;;;;;454.47;438.87;;;19.30;94.80;;;;;;5077026;28;20531;-80
2023/07/01 11:17:05;;;;;;;386.53;374.37;;;19.30;94.80;;;;;;5094849;28;20452;-84
2023/07/01 11:19:32;;;;;;;370.80;359.33;;;19.30;94.00;;;;;;5095534;28;20449;-85
2023/07/01 11:22:04;;;;;;;407.57;394.50;;;19.30;93.70;;;;;;5077180;28;20934;-89
2023/07/01 11:24:32;;;;;;;222.20;215.30;;;19.50;93.90;;;;;;5077479;28;20470;-81
2023/07/01 11:27:03;;;;;;;256.07;248.37;;;19.50;91.60;;;;;;5095155;28;20489;-85
2023/07/01 11:29:31;;;;;;;301.10;292.13;;;19.70;93.00;;;;;;5094574;28;20488;-89
2023/07/01 11:32:00;;;;;;;148.47;143.70;;;19.90;92.30;;;;;;5094550;28;20450;-90
2023/07/01 11:34:30;;;;;;;106.50;102.97;;;20.10;90.80;;;;;;5094592;28;20485;-92
2023/07/01 11:36:58;;;;;;;70.83;68.27;;;20.40;89.10;;;;;;5095164;28;20450;-91
2023/07/01 11:39:28;;;;;;;30.50;29.20;;;20.70;86.70;;;;;;5076942;28;20989;-91
2023/07/01 11:41:58;;;;;;;7.03;6.33;;;21.00;86.80;;;;;;5076665;28;20454;-93
2023/07/01 11:44:26;;;;;;;8.27;7.67;;;21.00;86.40;;;;;;5043852;28;20856;-92
2023/07/01 11:47:00;;;;;;;7.43;3.80;;;21.00;84.40;;;;;;5094288;28;20824;-93
2023/07/01 11:49:30;;;;;;;4.90;3.20;;;20.90;83.40;;;;;;5094762;28;20475;-94
2023/07/01 11:51:58;;;;;;;4.50;3.37;;;20.80;82.80;;;;;;5095144;28;20449;-93
2023/07/01 11:54:42;;;;;;;5.30;4.27;;;20.70;85.40;;;;;;5094223;28;20534;-92
2023/07/01 11:57:12;;;;;;;7.00;6.50;;;20.70;82.90;;;;;;5094823;28;20446;-93
2023/07/01 11:59:40;;;;;;;4.30;2.10;;;21.00;83.40;;;;;;5094016;28;20453;-94
2023/07/01 12:02:07;;;;;;;4.80;1.90;;;21.00;79.90;;;;;;5094525;28;20521;-91
2023/07/01 12:04:35;;;;;;;5.57;2.40;;;21.20;79.30;;;;;;5094093;28;20465;-90
2023/07/01 12:07:10;;;;;;;4.00;1.80;;;21.20;79.30;;;;;;5076716;28;20457;-90
2023/07/01 12:09:40;;;;;;;4.00;1.27;;;21.20;79.30;;;;;;5094644;28;20481;-90
2023/07/01 12:12:08;;;;;;;3.70;1.27;;;21.20;76.40;;;;;;5094271;28;20460;-88
2023/07/01 12:14:35;;;;;;;3.80;1.23;;;21.20;76.30;;;;;;5093955;28;20478;-88
2023/07/01 12:17:03;;;;;;;4.23;1.50;;;21.20;76.80;;;;;;5094425;28;20457;-89
2023/07/01 12:19:31;;;;;;;3.97;1.40;;;21.20;74.20;;;;;;5059959;28;20891;-93
2023/07/01 12:22:00;;;;;;;6.67;1.43;;;21.20;75.80;;;;;;5075946;28;21044;-92
2023/07/01 12:24:29;;;;;;;4.50;1.20;;;21.20;75.30;;;;;;5093693;28;20351;-83
2023/07/01 12:26:59;;;;;;;4.93;1.17;;;21.20;72.70;;;;;;5094820;28;20188;-83
2023/07/01 12:29:26;;;;;;;5.03;1.40;;;21.20;71.80;;;;;;5094311;28;20454;-83
2023/07/01 12:31:54;;;;;;;5.80;1.50;;;21.50;74.70;;;;;;5094365;28;20450;-83
2023/07/01 12:34:22;;;;;;;4.77;1.33;;;21.60;73.70;;;;;;5093522;28;20473;-91
2023/07/01 12:36:49;;;;;;;4.40;1.30;;;21.60;72.80;;;;;;5094401;28;20475;-92
2023/07/01 12:39:17;;;;;;;3.70;1.27;;;21.60;73.10;;;;;;5093952;28;20454;-92